sensor_id;sensor_type;location;lat;lon;timestamp;P1;durP1;ratioP1;P2;durP2;ratioP2
51146;SDS011;37207;53.060;18.726;2022-10-17T00:00:34;28.40;;;24.30;;
51146;SDS011;37207;53.060;18.726;2022-10-17T00:03:21;39.20;;;24.80;;
51146;SDS011;37207;53.060;18.726;2022-10-17T00:05:48;27.40;;;24.70;;
51146;SDS011;37207;53.060;18.726;2022-10-17T00:08:15;30.80;;;24.50;;
51146;SDS011;37207;53.060;18.726;2022-10-17T00:10:43;34.10;;;23.70;;
51146;SDS011;37207;53.060;18.726;2022-10-17T00:13:10;27.70;;;25.00;;
51146;SDS011;37207;53.060;18.726;2022-10-17T00:15:37;28.40;;;25.50;;
51146;SDS011;37207;53.060;18.726;2022-10-17T00:18:04;28.10;;;25.30;;
51146;SDS011;37207;53.060;18.726;2022-10-17T00:20:33;27.10;;;24.20;;
51146;SDS011;37207;53.060;18.726;2022-10-17T00:23:01;25.30;;;22.80;;
51146;SDS011;37207;53.060;18.726;2022-10-17T00:25:27;44.60;;;23.40;;
51146;SDS011;37207;53.060;18.726;2022-10-17T00:27:54;50.90;;;23.80;;
51146;SDS011;37207;53.060;18.726;2022-10-17T00:30:20;108.50;;;23.20;;
51146;SDS011;37207;53.060;18.726;2022-10-17T00:32:47;45.20;;;21.50;;
51146;SDS011;37207;53.060;18.726;2022-10-17T00:35:14;39.40;;;21.80;;
51146;SDS011;37207;53.060;18.726;2022-10-17T00:37:41;161.10;;;21.50;;
51146;SDS011;37207;53.060;18.726;2022-10-17T00:40:08;71.10;;;21.60;;
51146;SDS011;37207;53.060;18.726;2022-10-17T00:42:37;59.60;;;21.90;;
51146;SDS011;37207;53.060;18.726;2022-10-17T00:45:15;262.60;;;22.80;;
51146;SDS011;37207;53.060;18.726;2022-10-17T00:47:53;297.10;;;21.30;;
51146;SDS011;37207;53.060;18.726;2022-10-17T00:50:26;71.70;;;18.50;;
51146;SDS011;37207;53.060;18.726;2022-10-17T00:52:53;244.40;;;21.10;;
51146;SDS011;37207;53.060;18.726;2022-10-17T00:55:27;172.70;;;19.50;;
51146;SDS011;37207;53.060;18.726;2022-10-17T00:57:59;68.60;;;21.80;;
51146;SDS011;37207;53.060;18.726;2022-10-17T01:00:28;95.40;;;20.90;;
51146;SDS011;37207;53.060;18.726;2022-10-17T01:02:57;121.00;;;22.10;;
51146;SDS011;37207;53.060;18.726;2022-10-17T01:05:24;124.70;;;19.40;;
51146;SDS011;37207;53.060;18.726;2022-10-17T01:07:51;117.10;;;16.30;;
51146;SDS011;37207;53.060;18.726;2022-10-17T01:10:19;119.60;;;14.50;;
51146;SDS011;37207;53.060;18.726;2022-10-17T01:18:57;58.00;;;19.80;;
51146;SDS011;37207;53.060;18.726;2022-10-17T01:21:44;28.60;;;20.80;;
51146;SDS011;37207;53.060;18.726;2022-10-17T01:32:25;90.80;;;23.70;;
51146;SDS011;37207;53.060;18.726;2022-10-17T01:35:19;48.20;;;24.80;;
51146;SDS011;37207;53.060;18.726;2022-10-17T01:37:54;88.10;;;25.10;;
51146;SDS011;37207;53.060;18.726;2022-10-17T01:40:28;77.60;;;25.80;;
51146;SDS011;37207;53.060;18.726;2022-10-17T01:43:32;152.50;;;27.90;;
51146;SDS011;37207;53.060;18.726;2022-10-17T01:46:05;185.60;;;27.00;;
51146;SDS011;37207;53.060;18.726;2022-10-17T01:48:42;189.60;;;27.20;;
51146;SDS011;37207;53.060;18.726;2022-10-17T01:51:14;140.40;;;27.30;;
51146;SDS011;37207;53.060;18.726;2022-10-17T01:53:56;89.00;;;26.50;;
51146;SDS011;37207;53.060;18.726;2022-10-17T01:56:27;58.80;;;26.00;;
51146;SDS011;37207;53.060;18.726;2022-10-17T01:58:59;28.40;;;25.70;;
51146;SDS011;37207;53.060;18.726;2022-10-17T02:01:30;31.80;;;26.20;;
51146;SDS011;37207;53.060;18.726;2022-10-17T02:03:59;29.40;;;26.10;;
51146;SDS011;37207;53.060;18.726;2022-10-17T02:06:27;28.50;;;25.90;;
51146;SDS011;37207;53.060;18.726;2022-10-17T02:08:55;28.90;;;26.20;;
51146;SDS011;37207;53.060;18.726;2022-10-17T02:11:22;27.50;;;25.00;;
51146;SDS011;37207;53.060;18.726;2022-10-17T02:19:28;29.40;;;26.00;;
51146;SDS011;37207;53.060;18.726;2022-10-17T02:24:51;28.60;;;25.90;;
51146;SDS011;37207;53.060;18.726;2022-10-17T02:30:22;29.80;;;26.90;;
51146;SDS011;37207;53.060;18.726;2022-10-17T02:32:54;30.40;;;27.30;;
51146;SDS011;37207;53.060;18.726;2022-10-17T02:35:44;30.40;;;27.20;;
51146;SDS011;37207;53.060;18.726;2022-10-17T02:38:15;27.40;;;25.00;;
51146;SDS011;37207;53.060;18.726;2022-10-17T02:40:43;29.60;;;26.80;;
51146;SDS011;37207;53.060;18.726;2022-10-17T02:43:11;28.50;;;25.30;;
51146;SDS011;37207;53.060;18.726;2022-10-17T02:45:39;30.50;;;25.40;;
51146;SDS011;37207;53.060;18.726;2022-10-17T02:48:12;28.10;;;25.10;;
51146;SDS011;37207;53.060;18.726;2022-10-17T02:56:54;28.20;;;25.40;;
51146;SDS011;37207;53.060;18.726;2022-10-17T02:59:26;27.90;;;25.20;;
51146;SDS011;37207;53.060;18.726;2022-10-17T03:01:55;26.40;;;23.60;;
51146;SDS011;37207;53.060;18.726;2022-10-17T03:04:23;28.10;;;24.50;;
51146;SDS011;37207;53.060;18.726;2022-10-17T03:06:50;27.10;;;24.50;;
51146;SDS011;37207;53.060;18.726;2022-10-17T03:09:17;28.70;;;25.40;;
51146;SDS011;37207;53.060;18.726;2022-10-17T03:11:44;25.90;;;23.60;;
51146;SDS011;37207;53.060;18.726;2022-10-17T03:14:11;27.30;;;23.40;;
51146;SDS011;37207;53.060;18.726;2022-10-17T03:16:37;25.30;;;22.70;;
51146;SDS011;37207;53.060;18.726;2022-10-17T03:19:04;24.80;;;22.40;;
51146;SDS011;37207;53.060;18.726;2022-10-17T03:21:32;24.80;;;22.60;;
51146;SDS011;37207;53.060;18.726;2022-10-17T03:23:59;24.30;;;22.10;;
51146;SDS011;37207;53.060;18.726;2022-10-17T03:26:26;25.30;;;22.90;;
51146;SDS011;37207;53.060;18.726;2022-10-17T03:28:55;25.20;;;22.70;;
51146;SDS011;37207;53.060;18.726;2022-10-17T03:31:22;25.70;;;23.00;;
51146;SDS011;37207;53.060;18.726;2022-10-17T03:33:48;27.70;;;25.20;;
51146;SDS011;37207;53.060;18.726;2022-10-17T03:36:15;26.10;;;23.80;;
51146;SDS011;37207;53.060;18.726;2022-10-17T03:38:45;24.70;;;22.70;;
51146;SDS011;37207;53.060;18.726;2022-10-17T03:41:12;26.20;;;23.60;;
51146;SDS011;37207;53.060;18.726;2022-10-17T03:43:39;26.20;;;23.40;;
51146;SDS011;37207;53.060;18.726;2022-10-17T03:46:06;30.00;;;25.70;;
51146;SDS011;37207;53.060;18.726;2022-10-17T03:48:33;38.10;;;31.00;;
51146;SDS011;37207;53.060;18.726;2022-10-17T03:51:01;31.50;;;28.30;;
51146;SDS011;37207;53.060;18.726;2022-10-17T03:53:31;27.80;;;25.40;;
51146;SDS011;37207;53.060;18.726;2022-10-17T03:56:15;28.50;;;25.50;;
51146;SDS011;37207;53.060;18.726;2022-10-17T03:58:45;31.50;;;24.40;;
51146;SDS011;37207;53.060;18.726;2022-10-17T04:01:12;28.90;;;24.30;;
51146;SDS011;37207;53.060;18.726;2022-10-17T04:03:42;28.20;;;25.10;;
51146;SDS011;37207;53.060;18.726;2022-10-17T04:06:10;30.30;;;25.30;;
51146;SDS011;37207;53.060;18.726;2022-10-17T04:08:38;31.30;;;24.70;;
51146;SDS011;37207;53.060;18.726;2022-10-17T04:11:10;26.90;;;24.20;;
51146;SDS011;37207;53.060;18.726;2022-10-17T04:13:40;28.60;;;25.40;;
51146;SDS011;37207;53.060;18.726;2022-10-17T04:16:07;26.80;;;24.10;;
51146;SDS011;37207;53.060;18.726;2022-10-17T04:18:41;27.20;;;24.50;;
51146;SDS011;37207;53.060;18.726;2022-10-17T04:21:09;27.60;;;24.80;;
51146;SDS011;37207;53.060;18.726;2022-10-17T04:23:37;27.80;;;24.60;;
51146;SDS011;37207;53.060;18.726;2022-10-17T04:26:11;31.70;;;25.10;;
51146;SDS011;37207;53.060;18.726;2022-10-17T04:28:38;29.50;;;23.20;;
51146;SDS011;37207;53.060;18.726;2022-10-17T04:31:06;25.60;;;22.90;;
51146;SDS011;37207;53.060;18.726;2022-10-17T04:33:45;30.10;;;24.90;;
51146;SDS011;37207;53.060;18.726;2022-10-17T04:36:14;31.20;;;26.50;;
51146;SDS011;37207;53.060;18.726;2022-10-17T04:38:43;31.60;;;25.10;;
51146;SDS011;37207;53.060;18.726;2022-10-17T04:41:11;37.10;;;26.30;;
51146;SDS011;37207;53.060;18.726;2022-10-17T04:43:40;30.90;;;25.90;;
51146;SDS011;37207;53.060;18.726;2022-10-17T04:46:08;29.10;;;26.40;;
51146;SDS011;37207;53.060;18.726;2022-10-17T04:48:38;32.30;;;25.60;;
51146;SDS011;37207;53.060;18.726;2022-10-17T04:51:07;25.90;;;23.40;;
51146;SDS011;37207;53.060;18.726;2022-10-17T04:53:44;26.60;;;22.20;;
51146;SDS011;37207;53.060;18.726;2022-10-17T04:56:12;30.70;;;23.80;;
51146;SDS011;37207;53.060;18.726;2022-10-17T04:58:44;25.60;;;23.10;;
51146;SDS011;37207;53.060;18.726;2022-10-17T05:01:18;24.00;;;21.70;;
51146;SDS011;37207;53.060;18.726;2022-10-17T05:03:50;29.00;;;22.60;;
51146;SDS011;37207;53.060;18.726;2022-10-17T05:06:18;24.80;;;22.40;;
51146;SDS011;37207;53.060;18.726;2022-10-17T05:08:56;39.60;;;22.30;;
51146;SDS011;37207;53.060;18.726;2022-10-17T05:11:27;24.30;;;21.50;;
51146;SDS011;37207;53.060;18.726;2022-10-17T05:13:56;24.20;;;21.40;;
51146;SDS011;37207;53.060;18.726;2022-10-17T05:16:24;24.00;;;21.40;;
51146;SDS011;37207;53.060;18.726;2022-10-17T05:18:54;31.60;;;22.70;;
51146;SDS011;37207;53.060;18.726;2022-10-17T05:21:26;28.10;;;23.30;;
51146;SDS011;37207;53.060;18.726;2022-10-17T05:23:54;28.90;;;23.80;;
51146;SDS011;37207;53.060;18.726;2022-10-17T05:26:22;35.30;;;23.00;;
51146;SDS011;37207;53.060;18.726;2022-10-17T05:28:50;26.30;;;23.50;;
51146;SDS011;37207;53.060;18.726;2022-10-17T05:33:45;25.90;;;23.00;;
51146;SDS011;37207;53.060;18.726;2022-10-17T05:36:12;32.80;;;25.40;;
51146;SDS011;37207;53.060;18.726;2022-10-17T05:38:39;32.30;;;22.30;;
51146;SDS011;37207;53.060;18.726;2022-10-17T05:41:06;24.30;;;21.00;;
51146;SDS011;37207;53.060;18.726;2022-10-17T05:43:33;27.00;;;21.40;;
51146;SDS011;37207;53.060;18.726;2022-10-17T05:46:04;42.90;;;22.30;;
51146;SDS011;37207;53.060;18.726;2022-10-17T05:48:32;96.40;;;23.60;;
51146;SDS011;37207;53.060;18.726;2022-10-17T05:51:01;110.30;;;26.80;;
51146;SDS011;37207;53.060;18.726;2022-10-17T05:53:31;59.80;;;26.60;;
51146;SDS011;37207;53.060;18.726;2022-10-17T05:56:02;47.90;;;27.00;;
51146;SDS011;37207;53.060;18.726;2022-10-17T05:58:31;32.60;;;27.30;;
51146;SDS011;37207;53.060;18.726;2022-10-17T06:01:00;49.40;;;31.00;;
51146;SDS011;37207;53.060;18.726;2022-10-17T06:03:30;36.00;;;27.00;;
51146;SDS011;37207;53.060;18.726;2022-10-17T06:06:02;44.70;;;28.30;;
51146;SDS011;37207;53.060;18.726;2022-10-17T06:08:34;100.20;;;29.90;;
51146;SDS011;37207;53.060;18.726;2022-10-17T06:11:01;40.20;;;30.80;;
51146;SDS011;37207;53.060;18.726;2022-10-17T06:13:28;38.90;;;28.30;;
51146;SDS011;37207;53.060;18.726;2022-10-17T06:15:56;34.90;;;29.10;;
51146;SDS011;37207;53.060;18.726;2022-10-17T06:18:23;42.40;;;30.00;;
51146;SDS011;37207;53.060;18.726;2022-10-17T06:20:52;36.50;;;28.80;;
51146;SDS011;37207;53.060;18.726;2022-10-17T06:23:20;31.60;;;26.20;;
51146;SDS011;37207;53.060;18.726;2022-10-17T06:26:01;36.70;;;27.30;;
51146;SDS011;37207;53.060;18.726;2022-10-17T06:28:29;30.80;;;27.60;;
51146;SDS011;37207;53.060;18.726;2022-10-17T06:30:57;32.20;;;28.90;;
51146;SDS011;37207;53.060;18.726;2022-10-17T06:33:24;33.60;;;29.90;;
51146;SDS011;37207;53.060;18.726;2022-10-17T06:35:51;34.30;;;29.80;;
51146;SDS011;37207;53.060;18.726;2022-10-17T06:38:22;36.40;;;29.60;;
51146;SDS011;37207;53.060;18.726;2022-10-17T06:43:19;33.50;;;29.00;;
51146;SDS011;37207;53.060;18.726;2022-10-17T06:46:03;39.50;;;30.50;;
51146;SDS011;37207;53.060;18.726;2022-10-17T06:48:35;34.80;;;30.40;;
51146;SDS011;37207;53.060;18.726;2022-10-17T06:51:14;37.90;;;29.80;;
51146;SDS011;37207;53.060;18.726;2022-10-17T06:53:48;34.20;;;30.60;;
51146;SDS011;37207;53.060;18.726;2022-10-17T06:56:45;39.20;;;29.50;;
51146;SDS011;37207;53.060;18.726;2022-10-17T06:59:28;34.80;;;30.50;;
51146;SDS011;37207;53.060;18.726;2022-10-17T07:02:03;39.70;;;31.20;;
51146;SDS011;37207;53.060;18.726;2022-10-17T07:04:31;40.90;;;33.00;;
51146;SDS011;37207;53.060;18.726;2022-10-17T07:06:57;44.60;;;32.20;;
51146;SDS011;37207;53.060;18.726;2022-10-17T07:09:26;44.00;;;33.10;;
51146;SDS011;37207;53.060;18.726;2022-10-17T07:11:53;43.20;;;31.00;;
51146;SDS011;37207;53.060;18.726;2022-10-17T07:14:19;48.00;;;31.00;;
51146;SDS011;37207;53.060;18.726;2022-10-17T07:16:46;39.80;;;31.50;;
51146;SDS011;37207;53.060;18.726;2022-10-17T07:19:17;38.10;;;32.20;;
51146;SDS011;37207;53.060;18.726;2022-10-17T07:21:44;41.20;;;32.20;;
51146;SDS011;37207;53.060;18.726;2022-10-17T07:24:11;37.30;;;29.50;;
51146;SDS011;37207;53.060;18.726;2022-10-17T07:26:40;35.00;;;29.00;;
51146;SDS011;37207;53.060;18.726;2022-10-17T07:29:08;35.50;;;27.00;;
51146;SDS011;37207;53.060;18.726;2022-10-17T07:31:45;27.70;;;24.80;;
51146;SDS011;37207;53.060;18.726;2022-10-17T07:34:14;33.50;;;25.20;;
51146;SDS011;37207;53.060;18.726;2022-10-17T07:36:41;35.70;;;24.80;;
51146;SDS011;37207;53.060;18.726;2022-10-17T07:39:08;28.50;;;22.70;;
51146;SDS011;37207;53.060;18.726;2022-10-17T07:44:04;34.70;;;21.80;;
51146;SDS011;37207;53.060;18.726;2022-10-17T07:46:39;23.70;;;20.00;;
51146;SDS011;37207;53.060;18.726;2022-10-17T07:49:06;24.50;;;19.30;;
51146;SDS011;37207;53.060;18.726;2022-10-17T07:51:33;23.50;;;20.60;;
51146;SDS011;37207;53.060;18.726;2022-10-17T07:53:59;25.40;;;19.40;;
51146;SDS011;37207;53.060;18.726;2022-10-17T07:56:26;34.10;;;21.20;;
51146;SDS011;37207;53.060;18.726;2022-10-17T07:58:55;27.30;;;21.10;;
51146;SDS011;37207;53.060;18.726;2022-10-17T08:01:22;26.90;;;22.00;;
51146;SDS011;37207;53.060;18.726;2022-10-17T08:03:51;30.60;;;21.50;;
51146;SDS011;37207;53.060;18.726;2022-10-17T08:06:17;28.30;;;21.60;;
51146;SDS011;37207;53.060;18.726;2022-10-17T08:08:44;25.90;;;22.80;;
51146;SDS011;37207;53.060;18.726;2022-10-17T08:11:12;26.00;;;23.60;;
51146;SDS011;37207;53.060;18.726;2022-10-17T08:13:40;30.00;;;24.50;;
51146;SDS011;37207;53.060;18.726;2022-10-17T08:16:08;27.60;;;24.70;;
51146;SDS011;37207;53.060;18.726;2022-10-17T08:18:37;29.80;;;24.00;;
51146;SDS011;37207;53.060;18.726;2022-10-17T08:21:05;29.00;;;23.40;;
51146;SDS011;37207;53.060;18.726;2022-10-17T08:23:33;27.90;;;24.80;;
51146;SDS011;37207;53.060;18.726;2022-10-17T08:26:02;26.30;;;22.80;;
51146;SDS011;37207;53.060;18.726;2022-10-17T08:31:08;28.50;;;24.90;;
51146;SDS011;37207;53.060;18.726;2022-10-17T08:33:36;30.60;;;23.40;;
51146;SDS011;37207;53.060;18.726;2022-10-17T08:36:04;27.70;;;25.00;;
51146;SDS011;37207;53.060;18.726;2022-10-17T08:38:32;25.90;;;23.00;;
51146;SDS011;37207;53.060;18.726;2022-10-17T08:41:00;27.30;;;24.80;;
51146;SDS011;37207;53.060;18.726;2022-10-17T08:43:53;27.70;;;23.50;;
51146;SDS011;37207;53.060;18.726;2022-10-17T08:46:43;32.40;;;25.30;;
51146;SDS011;37207;53.060;18.726;2022-10-17T08:49:15;28.60;;;24.20;;
51146;SDS011;37207;53.060;18.726;2022-10-17T08:51:51;26.70;;;22.10;;
51146;SDS011;37207;53.060;18.726;2022-10-17T08:54:25;24.20;;;21.80;;
51146;SDS011;37207;53.060;18.726;2022-10-17T08:57:16;25.90;;;23.40;;
51146;SDS011;37207;53.060;18.726;2022-10-17T08:59:44;29.30;;;23.10;;
51146;SDS011;37207;53.060;18.726;2022-10-17T09:05:13;24.30;;;22.00;;
51146;SDS011;37207;53.060;18.726;2022-10-17T09:19:39;23.90;;;21.70;;
51146;SDS011;37207;53.060;18.726;2022-10-17T09:22:12;25.00;;;22.70;;
51146;SDS011;37207;53.060;18.726;2022-10-17T09:24:45;23.20;;;20.80;;
51146;SDS011;37207;53.060;18.726;2022-10-17T09:30:24;20.20;;;18.30;;
51146;SDS011;37207;53.060;18.726;2022-10-17T09:33:11;20.10;;;18.10;;
51146;SDS011;37207;53.060;18.726;2022-10-17T09:35:43;20.30;;;18.30;;
51146;SDS011;37207;53.060;18.726;2022-10-17T09:38:20;20.40;;;18.70;;
51146;SDS011;37207;53.060;18.726;2022-10-17T09:40:56;20.30;;;18.40;;
51146;SDS011;37207;53.060;18.726;2022-10-17T09:43:25;18.20;;;16.30;;
51146;SDS011;37207;53.060;18.726;2022-10-17T09:48:30;20.00;;;17.00;;
51146;SDS011;37207;53.060;18.726;2022-10-17T09:51:04;22.10;;;19.80;;
51146;SDS011;37207;53.060;18.726;2022-10-17T09:56:06;20.90;;;19.10;;
51146;SDS011;37207;53.060;18.726;2022-10-17T10:04:10;23.60;;;19.90;;
51146;SDS011;37207;53.060;18.726;2022-10-17T10:06:39;21.50;;;19.20;;
51146;SDS011;37207;53.060;18.726;2022-10-17T10:09:21;23.20;;;21.00;;
51146;SDS011;37207;53.060;18.726;2022-10-17T10:11:51;25.00;;;20.50;;
51146;SDS011;37207;53.060;18.726;2022-10-17T10:17:05;25.80;;;23.30;;
51146;SDS011;37207;53.060;18.726;2022-10-17T10:22:18;27.20;;;22.00;;
51146;SDS011;37207;53.060;18.726;2022-10-17T10:24:54;23.40;;;21.20;;
51146;SDS011;37207;53.060;18.726;2022-10-17T10:27:42;28.40;;;21.80;;
51146;SDS011;37207;53.060;18.726;2022-10-17T10:30:19;22.80;;;20.30;;
51146;SDS011;37207;53.060;18.726;2022-10-17T10:32:50;22.00;;;19.70;;
51146;SDS011;37207;53.060;18.726;2022-10-17T10:35:21;22.60;;;20.20;;
51146;SDS011;37207;53.060;18.726;2022-10-17T10:37:56;22.00;;;19.90;;
51146;SDS011;37207;53.060;18.726;2022-10-17T10:40:35;24.60;;;21.40;;
51146;SDS011;37207;53.060;18.726;2022-10-17T10:43:28;25.60;;;20.40;;
51146;SDS011;37207;53.060;18.726;2022-10-17T10:46:04;23.80;;;19.90;;
51146;SDS011;37207;53.060;18.726;2022-10-17T10:48:49;22.50;;;19.50;;
51146;SDS011;37207;53.060;18.726;2022-10-17T10:51:20;20.70;;;18.80;;
51146;SDS011;37207;53.060;18.726;2022-10-17T10:56:42;25.70;;;19.10;;
51146;SDS011;37207;53.060;18.726;2022-10-17T10:59:14;20.60;;;18.70;;
51146;SDS011;37207;53.060;18.726;2022-10-17T11:06:57;24.50;;;18.80;;
51146;SDS011;37207;53.060;18.726;2022-10-17T11:09:49;20.20;;;18.40;;
51146;SDS011;37207;53.060;18.726;2022-10-17T11:12:21;20.60;;;18.70;;
51146;SDS011;37207;53.060;18.726;2022-10-17T11:17:45;19.80;;;18.10;;
51146;SDS011;37207;53.060;18.726;2022-10-17T11:23:27;17.20;;;15.60;;
51146;SDS011;37207;53.060;18.726;2022-10-17T11:26:02;18.20;;;16.60;;
51146;SDS011;37207;53.060;18.726;2022-10-17T11:28:34;20.20;;;17.90;;
51146;SDS011;37207;53.060;18.726;2022-10-17T11:31:02;19.70;;;17.90;;
51146;SDS011;37207;53.060;18.726;2022-10-17T11:33:42;19.10;;;17.50;;
51146;SDS011;37207;53.060;18.726;2022-10-17T11:36:17;19.50;;;17.50;;
51146;SDS011;37207;53.060;18.726;2022-10-17T11:39:01;22.60;;;18.10;;
51146;SDS011;37207;53.060;18.726;2022-10-17T11:41:38;19.80;;;17.90;;
51146;SDS011;37207;53.060;18.726;2022-10-17T11:44:16;20.80;;;18.00;;
51146;SDS011;37207;53.060;18.726;2022-10-17T11:47:12;20.30;;;18.70;;
51146;SDS011;37207;53.060;18.726;2022-10-17T11:49:45;23.00;;;20.00;;
51146;SDS011;37207;53.060;18.726;2022-10-17T11:55:13;22.00;;;20.40;;
51146;SDS011;37207;53.060;18.726;2022-10-17T11:57:49;30.40;;;20.80;;
51146;SDS011;37207;53.060;18.726;2022-10-17T12:06:31;24.10;;;21.30;;
51146;SDS011;37207;53.060;18.726;2022-10-17T12:12:06;23.60;;;21.20;;
51146;SDS011;37207;53.060;18.726;2022-10-17T12:14:40;24.50;;;22.30;;
51146;SDS011;37207;53.060;18.726;2022-10-17T12:22:50;28.40;;;21.10;;
51146;SDS011;37207;53.060;18.726;2022-10-17T12:25:31;26.20;;;19.60;;
51146;SDS011;37207;53.060;18.726;2022-10-17T12:30:32;23.30;;;20.80;;
51146;SDS011;37207;53.060;18.726;2022-10-17T12:35:36;32.80;;;20.90;;
51146;SDS011;37207;53.060;18.726;2022-10-17T12:38:14;28.70;;;21.40;;
51146;SDS011;37207;53.060;18.726;2022-10-17T12:40:46;21.20;;;19.10;;
51146;SDS011;37207;53.060;18.726;2022-10-17T12:51:19;23.00;;;21.00;;
51146;SDS011;37207;53.060;18.726;2022-10-17T12:54:00;22.40;;;20.40;;
51146;SDS011;37207;53.060;18.726;2022-10-17T12:56:47;25.10;;;21.00;;
51146;SDS011;37207;53.060;18.726;2022-10-17T12:59:23;28.80;;;21.80;;
51146;SDS011;37207;53.060;18.726;2022-10-17T13:01:53;22.10;;;20.20;;
51146;SDS011;37207;53.060;18.726;2022-10-17T13:04:24;23.30;;;21.10;;
51146;SDS011;37207;53.060;18.726;2022-10-17T13:06:56;22.00;;;19.80;;
51146;SDS011;37207;53.060;18.726;2022-10-17T13:11:54;27.80;;;21.50;;
51146;SDS011;37207;53.060;18.726;2022-10-17T13:14:24;23.30;;;20.80;;
51146;SDS011;37207;53.060;18.726;2022-10-17T13:19:45;22.10;;;19.80;;
51146;SDS011;37207;53.060;18.726;2022-10-17T13:22:21;20.00;;;18.30;;
51146;SDS011;37207;53.060;18.726;2022-10-17T13:24:50;22.00;;;20.00;;
51146;SDS011;37207;53.060;18.726;2022-10-17T13:27:28;20.80;;;18.60;;
51146;SDS011;37207;53.060;18.726;2022-10-17T13:29:57;20.70;;;18.60;;
51146;SDS011;37207;53.060;18.726;2022-10-17T13:32:27;20.70;;;18.70;;
51146;SDS011;37207;53.060;18.726;2022-10-17T13:35:09;24.70;;;18.80;;
51146;SDS011;37207;53.060;18.726;2022-10-17T13:37:40;20.70;;;17.20;;
51146;SDS011;37207;53.060;18.726;2022-10-17T13:40:26;19.70;;;17.80;;
51146;SDS011;37207;53.060;18.726;2022-10-17T13:42:57;18.90;;;17.30;;
51146;SDS011;37207;53.060;18.726;2022-10-17T13:45:28;18.70;;;16.90;;
51146;SDS011;37207;53.060;18.726;2022-10-17T13:47:56;17.40;;;15.80;;
51146;SDS011;37207;53.060;18.726;2022-10-17T13:50:31;18.90;;;16.70;;
51146;SDS011;37207;53.060;18.726;2022-10-17T13:53:04;19.50;;;15.70;;
51146;SDS011;37207;53.060;18.726;2022-10-17T13:55:53;20.00;;;15.70;;
51146;SDS011;37207;53.060;18.726;2022-10-17T13:58:25;16.00;;;14.80;;
51146;SDS011;37207;53.060;18.726;2022-10-17T14:00:55;17.80;;;16.20;;
51146;SDS011;37207;53.060;18.726;2022-10-17T14:03:22;16.10;;;14.70;;
51146;SDS011;37207;53.060;18.726;2022-10-17T14:08:27;15.20;;;14.00;;
51146;SDS011;37207;53.060;18.726;2022-10-17T14:10:55;16.50;;;15.00;;
51146;SDS011;37207;53.060;18.726;2022-10-17T14:13:23;17.30;;;15.70;;
51146;SDS011;37207;53.060;18.726;2022-10-17T14:15:53;16.40;;;15.00;;
51146;SDS011;37207;53.060;18.726;2022-10-17T14:18:29;17.30;;;15.30;;
51146;SDS011;37207;53.060;18.726;2022-10-17T14:20:58;16.60;;;14.90;;
51146;SDS011;37207;53.060;18.726;2022-10-17T14:23:39;17.10;;;15.40;;
51146;SDS011;37207;53.060;18.726;2022-10-17T14:26:14;17.30;;;15.30;;
51146;SDS011;37207;53.060;18.726;2022-10-17T14:28:43;17.10;;;15.60;;
51146;SDS011;37207;53.060;18.726;2022-10-17T14:31:18;20.00;;;16.30;;
51146;SDS011;37207;53.060;18.726;2022-10-17T14:33:45;17.80;;;16.10;;
51146;SDS011;37207;53.060;18.726;2022-10-17T14:36:14;17.00;;;15.30;;
51146;SDS011;37207;53.060;18.726;2022-10-17T14:38:45;17.10;;;15.70;;
51146;SDS011;37207;53.060;18.726;2022-10-17T14:41:21;17.10;;;15.50;;
51146;SDS011;37207;53.060;18.726;2022-10-17T14:43:57;20.20;;;16.70;;
51146;SDS011;37207;53.060;18.726;2022-10-17T14:46:26;19.30;;;17.10;;
51146;SDS011;37207;53.060;18.726;2022-10-17T14:48:54;22.00;;;18.10;;
51146;SDS011;37207;53.060;18.726;2022-10-17T14:51:30;21.30;;;18.20;;
51146;SDS011;37207;53.060;18.726;2022-10-17T14:53:59;20.40;;;18.60;;
51146;SDS011;37207;53.060;18.726;2022-10-17T14:56:36;20.40;;;18.20;;
51146;SDS011;37207;53.060;18.726;2022-10-17T14:59:06;19.30;;;17.70;;
51146;SDS011;37207;53.060;18.726;2022-10-17T15:01:35;19.90;;;18.20;;
51146;SDS011;37207;53.060;18.726;2022-10-17T15:04:02;21.80;;;17.50;;
51146;SDS011;37207;53.060;18.726;2022-10-17T15:06:30;20.40;;;18.20;;
51146;SDS011;37207;53.060;18.726;2022-10-17T15:08:59;20.90;;;18.70;;
51146;SDS011;37207;53.060;18.726;2022-10-17T15:11:26;21.20;;;18.90;;
51146;SDS011;37207;53.060;18.726;2022-10-17T15:13:52;20.80;;;18.60;;
51146;SDS011;37207;53.060;18.726;2022-10-17T15:16:23;20.70;;;19.00;;
51146;SDS011;37207;53.060;18.726;2022-10-17T15:18:52;23.10;;;20.60;;
51146;SDS011;37207;53.060;18.726;2022-10-17T15:21:20;21.00;;;19.00;;
51146;SDS011;37207;53.060;18.726;2022-10-17T15:23:49;23.50;;;18.60;;
51146;SDS011;37207;53.060;18.726;2022-10-17T15:26:17;25.00;;;21.80;;
51146;SDS011;37207;53.060;18.726;2022-10-17T15:28:48;30.40;;;22.70;;
51146;SDS011;37207;53.060;18.726;2022-10-17T15:31:17;27.20;;;21.60;;
51146;SDS011;37207;53.060;18.726;2022-10-17T15:33:47;23.30;;;20.90;;
51146;SDS011;37207;53.060;18.726;2022-10-17T15:38:49;24.30;;;21.70;;
51146;SDS011;37207;53.060;18.726;2022-10-17T15:41:18;24.70;;;21.30;;
51146;SDS011;37207;53.060;18.726;2022-10-17T15:43:45;27.50;;;23.20;;
51146;SDS011;37207;53.060;18.726;2022-10-17T15:46:16;30.40;;;21.70;;
51146;SDS011;37207;53.060;18.726;2022-10-17T15:48:46;32.70;;;22.30;;
51146;SDS011;37207;53.060;18.726;2022-10-17T15:51:13;30.80;;;24.20;;
51146;SDS011;37207;53.060;18.726;2022-10-17T15:53:40;34.40;;;25.50;;
51146;SDS011;37207;53.060;18.726;2022-10-17T15:56:07;27.00;;;24.20;;
51146;SDS011;37207;53.060;18.726;2022-10-17T15:58:44;33.40;;;25.10;;
51146;SDS011;37207;53.060;18.726;2022-10-17T16:01:18;35.30;;;27.60;;
51146;SDS011;37207;53.060;18.726;2022-10-17T16:03:51;34.40;;;26.60;;
51146;SDS011;37207;53.060;18.726;2022-10-17T16:06:19;39.60;;;27.40;;
51146;SDS011;37207;53.060;18.726;2022-10-17T16:08:47;54.10;;;26.80;;
51146;SDS011;37207;53.060;18.726;2022-10-17T16:13:59;31.40;;;24.70;;
51146;SDS011;37207;53.060;18.726;2022-10-17T16:16:28;36.60;;;24.70;;
51146;SDS011;37207;53.060;18.726;2022-10-17T16:18:55;31.50;;;24.20;;
51146;SDS011;37207;53.060;18.726;2022-10-17T16:21:23;29.50;;;25.50;;
51146;SDS011;37207;53.060;18.726;2022-10-17T16:23:53;27.80;;;25.00;;
51146;SDS011;37207;53.060;18.726;2022-10-17T16:26:19;38.30;;;26.30;;
51146;SDS011;37207;53.060;18.726;2022-10-17T16:28:46;33.50;;;25.90;;
51146;SDS011;37207;53.060;18.726;2022-10-17T16:31:24;32.40;;;27.70;;
51146;SDS011;37207;53.060;18.726;2022-10-17T16:33:55;33.60;;;27.50;;
51146;SDS011;37207;53.060;18.726;2022-10-17T16:36:23;37.80;;;28.40;;
51146;SDS011;37207;53.060;18.726;2022-10-17T16:38:50;35.70;;;29.10;;
51146;SDS011;37207;53.060;18.726;2022-10-17T16:41:20;36.60;;;30.90;;
51146;SDS011;37207;53.060;18.726;2022-10-17T16:43:52;36.00;;;27.00;;
51146;SDS011;37207;53.060;18.726;2022-10-17T16:48:47;40.30;;;29.30;;